sensor_id;sensor_type;location;lat;lon;timestamp;pressure;altitude;pressure_sealevel;temperature;humidity
54389;BME280;40975;50.390;8.640;2022-09-25T00:02:08;98751.16;;;11.51;100.00
54389;BME280;40975;50.390;8.640;2022-09-25T00:04:33;98750.19;;;11.53;100.00
54389;BME280;40975;50.390;8.640;2022-09-25T00:06:59;98753.66;;;11.53;100.00
54389;BME280;40975;50.390;8.640;2022-09-25T00:09:24;98753.47;;;11.55;100.00
54389;BME280;40975;50.390;8.640;2022-09-25T00:11:49;98750.63;;;11.48;100.00
54389;BME280;40975;50.390;8.640;2022-09-25T00:14:15;98756.28;;;11.45;100.00
54389;BME280;40975;50.390;8.640;2022-09-25T00:16:40;98749.31;;;11.52;100.00
54389;BME280;40975;50.390;8.640;2022-09-25T00:19:05;98755.63;;;11.51;100.00
54389;BME280;40975;50.390;8.640;2022-09-25T00:21:49;98754.81;;;11.50;100.00
54389;BME280;40975;50.390;8.640;2022-09-25T00:24:17;98753.66;;;11.53;100.00
54389;BME280;40975;50.390;8.640;2022-09-25T00:26:43;98750.50;;;11.49;100.00
54389;BME280;40975;50.390;8.640;2022-09-25T00:29:14;98750.50;;;11.49;100.00
54389;BME280;40975;50.390;8.640;2022-09-25T00:31:40;98746.16;;;11.48;100.00
54389;BME280;40975;50.390;8.640;2022-09-25T00:34:06;98744.66;;;11.46;100.00
54389;BME280;40975;50.390;8.640;2022-09-25T00:36:32;98738.19;;;11.48;100.00
54389;BME280;40975;50.390;8.640;2022-09-25T00:38:58;98737.22;;;11.49;100.00
54389;BME280;40975;50.390;8.640;2022-09-25T00:41:25;98737.31;;;11.40;100.00
54389;BME280;40975;50.390;8.640;2022-09-25T00:43:54;98744.16;;;11.42;100.00
54389;BME280;40975;50.390;8.640;2022-09-25T00:48:59;98737.81;;;11.35;100.00
54389;BME280;40975;50.390;8.640;2022-09-25T00:51:36;98735.16;;;11.35;100.00
54389;BME280;40975;50.390;8.640;2022-09-25T00:54:07;98741.16;;;11.37;100.00
54389;BME280;40975;50.390;8.640;2022-09-25T00:56:38;98732.50;;;11.35;100.00
54389;BME280;40975;50.390;8.640;2022-09-25T00:59:10;98729.69;;;11.37;100.00
54389;BME280;40975;50.390;8.640;2022-09-25T01:01:36;98727.03;;;11.37;100.00
54389;BME280;40975;50.390;8.640;2022-09-25T01:04:02;98729.69;;;11.37;100.00
54389;BME280;40975;50.390;8.640;2022-09-25T01:06:28;98731.50;;;11.36;100.00
54389;BME280;40975;50.390;8.640;2022-09-25T01:08:54;98726.19;;;11.36;100.00
54389;BME280;40975;50.390;8.640;2022-09-25T01:11:20;98728.53;;;11.31;100.00
54389;BME280;40975;50.390;8.640;2022-09-25T01:13:45;98726.50;;;11.33;100.00
54389;BME280;40975;50.390;8.640;2022-09-25T01:16:34;98728.03;;;11.35;100.00
54389;BME280;40975;50.390;8.640;2022-09-25T01:19:37;98726.38;;;11.34;100.00
54389;BME280;40975;50.390;8.640;2022-09-25T01:22:17;98728.19;;;11.34;100.00
54389;BME280;40975;50.390;8.640;2022-09-25T01:24:54;98729.69;;;11.37;100.00
54389;BME280;40975;50.390;8.640;2022-09-25T01:27:41;98728.34;;;11.32;100.00
54389;BME280;40975;50.390;8.640;2022-09-25T01:30:15;98730.00;;;11.33;100.00
54389;BME280;40975;50.390;8.640;2022-09-25T01:32:54;98729.50;;;11.30;100.00
54389;BME280;40975;50.390;8.640;2022-09-25T01:38:15;98729.34;;;11.31;100.00
54389;BME280;40975;50.390;8.640;2022-09-25T01:40:51;98723.03;;;11.32;100.00
54389;BME280;40975;50.390;8.640;2022-09-25T01:43:26;98721.53;;;11.30;100.00
54389;BME280;40975;50.390;8.640;2022-09-25T01:45:59;98717.03;;;11.22;100.00
54389;BME280;40975;50.390;8.640;2022-09-25T01:48:26;98720.84;;;11.28;100.00
54389;BME280;40975;50.390;8.640;2022-09-25T01:50:59;98716.53;;;11.27;100.00
54389;BME280;40975;50.390;8.640;2022-09-25T01:53:37;98714.72;;;11.27;100.00
54389;BME280;40975;50.390;8.640;2022-09-25T01:56:10;98716.22;;;11.30;100.00
54389;BME280;40975;50.390;8.640;2022-09-25T01:58:46;98715.38;;;11.29;100.00
54389;BME280;40975;50.390;8.640;2022-09-25T02:01:18;98714.38;;;11.22;100.00
54389;BME280;40975;50.390;8.640;2022-09-25T02:03:50;98719.81;;;11.12;100.00
54389;BME280;40975;50.390;8.640;2022-09-25T02:06:18;98714.84;;;11.17;100.00
54389;BME280;40975;50.390;8.640;2022-09-25T02:08:55;98716.00;;;11.15;100.00
54389;BME280;40975;50.390;8.640;2022-09-25T02:11:22;98716.00;;;11.15;100.00
54389;BME280;40975;50.390;8.640;2022-09-25T02:13:58;98713.34;;;11.15;100.00
54389;BME280;40975;50.390;8.640;2022-09-25T02:16:33;98715.00;;;11.16;100.00
54389;BME280;40975;50.390;8.640;2022-09-25T02:18:59;98717.03;;;11.22;100.00
54389;BME280;40975;50.390;8.640;2022-09-25T02:22:03;98718.50;;;11.25;100.00
54389;BME280;40975;50.390;8.640;2022-09-25T02:27:21;98716.19;;;11.22;100.00
54389;BME280;40975;50.390;8.640;2022-09-25T02:29:47;98713.38;;;11.23;100.00
54389;BME280;40975;50.390;8.640;2022-09-25T02:32:14;98724.00;;;11.23;100.00
54389;BME280;40975;50.390;8.640;2022-09-25T02:34:41;98724.00;;;11.23;100.00
54389;BME280;40975;50.390;8.640;2022-09-25T02:37:11;98719.69;;;11.22;100.00
54389;BME280;40975;50.390;8.640;2022-09-25T02:39:37;98725.16;;;11.20;100.00
54389;BME280;40975;50.390;8.640;2022-09-25T02:42:28;98728.13;;;11.17;100.00
54389;BME280;40975;50.390;8.640;2022-09-25T02:47:38;98722.50;;;11.20;100.00
54389;BME280;40975;50.390;8.640;2022-09-25T02:50:46;98721.81;;;11.18;100.00
54389;BME280;40975;50.390;8.640;2022-09-25T02:53:25;98715.31;;;11.13;100.00
54389;BME280;40975;50.390;8.640;2022-09-25T02:56:02;98719.47;;;11.15;100.00
54389;BME280;40975;50.390;8.640;2022-09-25T02:58:32;98717.16;;;11.12;100.00
54389;BME280;40975;50.390;8.640;2022-09-25T03:01:00;98724.13;;;11.13;100.00
54389;BME280;40975;50.390;8.640;2022-09-25T03:03:30;98721.47;;;11.13;100.00
54389;BME280;40975;50.390;8.640;2022-09-25T03:05:56;98724.31;;;11.20;100.00
54389;BME280;40975;50.390;8.640;2022-09-25T03:08:23;98721.31;;;11.15;100.00
54389;BME280;40975;50.390;8.640;2022-09-25T03:11:02;98719.34;;;11.17;100.00
54389;BME280;40975;50.390;8.640;2022-09-25T03:13:29;98726.63;;;11.15;100.00
54389;BME280;40975;50.390;8.640;2022-09-25T03:16:38;98724.97;;;11.14;100.00
54389;BME280;40975;50.390;8.640;2022-09-25T03:19:06;98717.16;;;11.12;100.00
54389;BME280;40975;50.390;8.640;2022-09-25T03:21:32;98719.81;;;11.12;100.00
54389;BME280;40975;50.390;8.640;2022-09-25T03:23:58;98724.13;;;11.13;100.00
54389;BME280;40975;50.390;8.640;2022-09-25T03:26:24;98717.81;;;11.14;100.00
54389;BME280;40975;50.390;8.640;2022-09-25T03:28:50;98717.31;;;11.11;100.00
54389;BME280;40975;50.390;8.640;2022-09-25T03:31:16;98714.34;;;11.14;100.00
54389;BME280;40975;50.390;8.640;2022-09-25T03:33:42;98717.97;;;11.13;100.00
54389;BME280;40975;50.390;8.640;2022-09-25T03:36:20;98715.50;;;11.11;100.00
54389;BME280;40975;50.390;8.640;2022-09-25T03:38:48;98714.66;;;11.11;100.00
54389;BME280;40975;50.390;8.640;2022-09-25T03:41:16;98716.31;;;11.12;100.00
54389;BME280;40975;50.390;8.640;2022-09-25T03:43:44;98716.50;;;11.10;100.00
54389;BME280;40975;50.390;8.640;2022-09-25T03:46:12;98705.00;;;11.10;100.00
54389;BME280;40975;50.390;8.640;2022-09-25T03:48:38;98709.19;;;11.12;100.00
54389;BME280;40975;50.390;8.640;2022-09-25T03:51:05;98705.69;;;11.12;100.00
54389;BME280;40975;50.390;8.640;2022-09-25T03:53:30;98703.88;;;11.12;100.00
54389;BME280;40975;50.390;8.640;2022-09-25T03:56:05;98712.84;;;11.11;100.00
54389;BME280;40975;50.390;8.640;2022-09-25T03:58:31;98712.00;;;11.11;100.00
54389;BME280;40975;50.390;8.640;2022-09-25T04:00:56;98710.19;;;11.11;100.00
54389;BME280;40975;50.390;8.640;2022-09-25T04:03:24;98702.03;;;11.13;100.00
54389;BME280;40975;50.390;8.640;2022-09-25T04:05:52;98704.19;;;11.09;100.00
54389;BME280;40975;50.390;8.640;2022-09-25T04:08:17;98697.22;;;11.08;100.00
54389;BME280;40975;50.390;8.640;2022-09-25T04:10:43;98704.88;;;11.11;100.00
54389;BME280;40975;50.390;8.640;2022-09-25T04:13:08;98704.53;;;11.14;100.00
54389;BME280;40975;50.390;8.640;2022-09-25T04:15:38;98705.69;;;11.12;100.00
54389;BME280;40975;50.390;8.640;2022-09-25T04:18:04;98703.72;;;11.14;100.00
54389;BME280;40975;50.390;8.640;2022-09-25T04:20:30;98705.88;;;11.10;100.00
54389;BME280;40975;50.390;8.640;2022-09-25T04:22:55;98705.69;;;11.12;100.00
54389;BME280;40975;50.390;8.640;2022-09-25T04:25:21;98700.56;;;11.10;100.00
54389;BME280;40975;50.390;8.640;2022-09-25T04:27:49;98709.69;;;11.08;100.00
54389;BME280;40975;50.390;8.640;2022-09-25T04:30:14;98706.00;;;11.09;100.00
54389;BME280;40975;50.390;8.640;2022-09-25T04:32:39;98702.88;;;11.13;100.00
54389;BME280;40975;50.390;8.640;2022-09-25T04:35:23;98707.66;;;11.10;100.00
54389;BME280;40975;50.390;8.640;2022-09-25T04:37:49;98700.84;;;11.07;100.00
54389;BME280;40975;50.390;8.640;2022-09-25T04:40:14;98699.69;;;11.10;100.00
54389;BME280;40975;50.390;8.640;2022-09-25T04:42:40;98702.53;;;11.08;100.00
54389;BME280;40975;50.390;8.640;2022-09-25T04:45:08;98703.22;;;11.10;100.00
54389;BME280;40975;50.390;8.640;2022-09-25T04:47:33;98702.53;;;11.08;100.00
54389;BME280;40975;50.390;8.640;2022-09-25T04:49:58;98701.72;;;11.08;100.00
54389;BME280;40975;50.390;8.640;2022-09-25T04:52:24;98707.03;;;11.08;100.00
54389;BME280;40975;50.390;8.640;2022-09-25T04:54:49;98707.66;;;11.10;100.00
54389;BME280;40975;50.390;8.640;2022-09-25T04:57:16;98710.00;;;11.13;100.00
54389;BME280;40975;50.390;8.640;2022-09-25T04:59:41;98717.47;;;11.09;100.00
54389;BME280;40975;50.390;8.640;2022-09-25T05:02:07;98711.47;;;11.07;100.00
54389;BME280;40975;50.390;8.640;2022-09-25T05:04:32;98710.31;;;11.10;100.00
54389;BME280;40975;50.390;8.640;2022-09-25T05:06:58;98716.63;;;11.09;100.00
54389;BME280;40975;50.390;8.640;2022-09-25T05:09:23;98721.13;;;11.08;100.00
54389;BME280;40975;50.390;8.640;2022-09-25T05:11:48;98710.31;;;11.10;100.00
54389;BME280;40975;50.390;8.640;2022-09-25T05:14:14;98717.47;;;11.09;100.00
54389;BME280;40975;50.390;8.640;2022-09-25T05:16:39;98717.66;;;11.08;100.00
54389;BME280;40975;50.390;8.640;2022-09-25T05:19:04;98722.59;;;11.02;100.00
54389;BME280;40975;50.390;8.640;2022-09-25T05:21:30;98723.25;;;11.04;100.00
54389;BME280;40975;50.390;8.640;2022-09-25T05:23:56;98723.75;;;11.00;100.00
54389;BME280;40975;50.390;8.640;2022-09-25T05:26:22;98727.06;;;11.02;100.00
54389;BME280;40975;50.390;8.640;2022-09-25T05:28:48;98714.59;;;10.94;100.00
54389;BME280;40975;50.390;8.640;2022-09-25T05:31:14;98713.13;;;11.00;100.00
54389;BME280;40975;50.390;8.640;2022-09-25T05:33:40;98713.94;;;11.00;100.00
54389;BME280;40975;50.390;8.640;2022-09-25T05:36:08;98720.25;;;10.99;100.00
54389;BME280;40975;50.390;8.640;2022-09-25T05:38:35;98717.28;;;11.02;100.00
54389;BME280;40975;50.390;8.640;2022-09-25T05:41:02;98711.16;;;11.02;100.00
54389;BME280;40975;50.390;8.640;2022-09-25T05:43:29;98726.59;;;11.07;100.00
54389;BME280;40975;50.390;8.640;2022-09-25T05:45:54;98723.59;;;11.10;100.00
54389;BME280;40975;50.390;8.640;2022-09-25T05:48:20;98720.63;;;11.13;100.00
54389;BME280;40975;50.390;8.640;2022-09-25T05:50:52;98721.78;;;11.10;100.00
54389;BME280;40975;50.390;8.640;2022-09-25T05:53:18;98721.63;;;11.12;100.00
54389;BME280;40975;50.390;8.640;2022-09-25T05:55:51;98727.09;;;11.10;100.00
54389;BME280;40975;50.390;8.640;2022-09-25T05:58:16;98724.28;;;11.12;100.00
54389;BME280;40975;50.390;8.640;2022-09-25T06:00:42;98727.09;;;11.10;100.00
54389;BME280;40975;50.390;8.640;2022-09-25T06:03:07;98726.63;;;11.15;100.00
54389;BME280;40975;50.390;8.640;2022-09-25T06:05:33;98726.28;;;11.18;100.00
54389;BME280;40975;50.390;8.640;2022-09-25T06:07:58;98729.97;;;11.17;100.00
54389;BME280;40975;50.390;8.640;2022-09-25T06:10:23;98739.44;;;11.19;100.00
54389;BME280;40975;50.390;8.640;2022-09-25T06:13:00;98727.31;;;11.17;100.00
54389;BME280;40975;50.390;8.640;2022-09-25T06:15:28;98734.25;;;11.18;100.00
54389;BME280;40975;50.390;8.640;2022-09-25T06:17:54;98732.28;;;11.20;100.00
54389;BME280;40975;50.390;8.640;2022-09-25T06:20:20;98730.47;;;11.20;100.00
54389;BME280;40975;50.390;8.640;2022-09-25T06:22:53;98730.31;;;11.22;100.00
54389;BME280;40975;50.390;8.640;2022-09-25T06:25:21;98729.13;;;11.25;100.00
54389;BME280;40975;50.390;8.640;2022-09-25T06:27:53;98732.66;;;11.25;100.00
54389;BME280;40975;50.390;8.640;2022-09-25T06:30:20;98727.84;;;11.29;100.00
54389;BME280;40975;50.390;8.640;2022-09-25T06:32:46;98726.69;;;11.31;100.00
54389;BME280;40975;50.390;8.640;2022-09-25T06:35:12;98725.34;;;11.27;100.00
54389;BME280;40975;50.390;8.640;2022-09-25T06:37:37;98726.00;;;11.29;100.00
54389;BME280;40975;50.390;8.640;2022-09-25T06:40:02;98739.16;;;11.31;100.00
54389;BME280;40975;50.390;8.640;2022-09-25T06:42:28;98731.69;;;11.34;100.00
54389;BME280;40975;50.390;8.640;2022-09-25T06:44:53;98735.31;;;11.33;100.00
54389;BME280;40975;50.390;8.640;2022-09-25T06:47:20;98737.13;;;11.33;100.00
54389;BME280;40975;50.390;8.640;2022-09-25T06:49:45;98734.84;;;11.38;100.00
54389;BME280;40975;50.390;8.640;2022-09-25T06:52:11;98737.50;;;11.38;100.00
54389;BME280;40975;50.390;8.640;2022-09-25T06:54:36;98734.66;;;11.40;100.00
54389;BME280;40975;50.390;8.640;2022-09-25T06:57:01;98738.69;;;11.44;100.00
54389;BME280;40975;50.390;8.640;2022-09-25T06:59:27;98736.84;;;11.44;100.00
54389;BME280;40975;50.390;8.640;2022-09-25T07:01:52;98744.16;;;11.42;100.00
54389;BME280;40975;50.390;8.640;2022-09-25T07:04:18;98729.03;;;11.43;100.00
54389;BME280;40975;50.390;8.640;2022-09-25T07:06:43;98733.56;;;11.50;100.00
54389;BME280;40975;50.390;8.640;2022-09-25T07:09:09;98736.34;;;11.49;100.00
54389;BME280;40975;50.390;8.640;2022-09-25T07:11:34;98736.53;;;11.56;100.00
54389;BME280;40975;50.390;8.640;2022-09-25T07:14:00;98741.38;;;11.60;100.00
54389;BME280;40975;50.390;8.640;2022-09-25T07:16:27;98735.25;;;11.60;100.00
54389;BME280;40975;50.390;8.640;2022-09-25T07:18:53;98738.72;;;11.60;100.00
54389;BME280;40975;50.390;8.640;2022-09-25T07:21:20;98733.75;;;11.65;100.00
54389;BME280;40975;50.390;8.640;2022-09-25T07:23:47;98730.59;;;11.62;100.00
54389;BME280;40975;50.390;8.640;2022-09-25T07:26:16;98740.88;;;11.65;100.00
54389;BME280;40975;50.390;8.640;2022-09-25T07:28:47;98741.88;;;11.64;100.00
54389;BME280;40975;50.390;8.640;2022-09-25T07:31:16;98739.88;;;11.66;100.00
54389;BME280;40975;50.390;8.640;2022-09-25T07:33:41;98743.22;;;11.68;100.00
54389;BME280;40975;50.390;8.640;2022-09-25T07:36:07;98741.91;;;11.72;100.00
54389;BME280;40975;50.390;8.640;2022-09-25T07:38:33;98743.72;;;11.72;100.00
54389;BME280;40975;50.390;8.640;2022-09-25T07:41:01;98742.91;;;11.71;100.00
54389;BME280;40975;50.390;8.640;2022-09-25T07:43:26;98746.38;;;11.72;100.00
54389;BME280;40975;50.390;8.640;2022-09-25T07:45:52;98734.09;;;11.71;100.00
54389;BME280;40975;50.390;8.640;2022-09-25T07:48:18;98747.72;;;11.68;100.00
54389;BME280;40975;50.390;8.640;2022-09-25T07:50:44;98744.91;;;11.69;100.00
54389;BME280;40975;50.390;8.640;2022-09-25T07:53:10;98746.19;;;11.65;100.00
54389;BME280;40975;50.390;8.640;2022-09-25T07:55:36;98747.19;;;11.56;100.00
54389;BME280;40975;50.390;8.640;2022-09-25T07:58:01;98749.00;;;11.55;100.00
54389;BME280;40975;50.390;8.640;2022-09-25T08:00:26;98752.19;;;11.59;100.00
54389;BME280;40975;50.390;8.640;2022-09-25T08:02:56;98753.00;;;11.59;100.00
54389;BME280;40975;50.390;8.640;2022-09-25T08:05:22;98759.47;;;11.57;100.00
54389;BME280;40975;50.390;8.640;2022-09-25T08:07:47;98756.50;;;11.60;100.00
54389;BME280;40975;50.390;8.640;2022-09-25T08:10:12;98756.63;;;11.58;100.00
54389;BME280;40975;50.390;8.640;2022-09-25T08:12:37;98760.47;;;11.56;100.00
54389;BME280;40975;50.390;8.640;2022-09-25T08:15:05;98752.50;;;11.56;100.00
54389;BME280;40975;50.390;8.640;2022-09-25T08:17:30;98751.00;;;11.53;100.00
54389;BME280;40975;50.390;8.640;2022-09-25T08:19:56;98761.44;;;11.55;100.00
54389;BME280;40975;50.390;8.640;2022-09-25T08:22:21;98763.63;;;11.59;100.00
54389;BME280;40975;50.390;8.640;2022-09-25T08:24:47;98767.44;;;11.57;100.00
54389;BME280;40975;50.390;8.640;2022-09-25T08:27:13;98764.63;;;11.58;100.00
54389;BME280;40975;50.390;8.640;2022-09-25T08:29:39;98763.63;;;11.59;100.00
54389;BME280;40975;50.390;8.640;2022-09-25T08:32:05;98767.13;;;11.60;100.00
54389;BME280;40975;50.390;8.640;2022-09-25T08:34:30;98765.09;;;11.54;100.00
54389;BME280;40975;50.390;8.640;2022-09-25T08:36:56;98767.63;;;11.55;100.00
54389;BME280;40975;50.390;8.640;2022-09-25T08:39:22;98768.28;;;11.57;100.00
54389;BME280;40975;50.390;8.640;2022-09-25T08:41:53;98761.84;;;11.68;100.00
54389;BME280;40975;50.390;8.640;2022-09-25T08:44:29;98760.47;;;11.56;100.00
54389;BME280;40975;50.390;8.640;2022-09-25T08:47:02;98758.78;;;11.55;100.00
54389;BME280;40975;50.390;8.640;2022-09-25T08:49:58;98764.47;;;11.51;100.00
54389;BME280;40975;50.390;8.640;2022-09-25T08:52:25;98760.63;;;11.46;100.00
54389;BME280;40975;50.390;8.640;2022-09-25T08:54:50;98759.44;;;11.48;100.00
54389;BME280;40975;50.390;8.640;2022-09-25T08:57:34;98769.22;;;11.48;100.00
54389;BME280;40975;50.390;8.640;2022-09-25T09:00:09;98777.88;;;11.50;100.00
54389;BME280;40975;50.390;8.640;2022-09-25T09:02:44;98777.03;;;11.41;100.00
54389;BME280;40975;50.390;8.640;2022-09-25T09:05:21;98775.19;;;11.42;100.00
54389;BME280;40975;50.390;8.640;2022-09-25T09:07:53;98771.38;;;11.36;100.00
54389;BME280;40975;50.390;8.640;2022-09-25T09:12:58;98770.19;;;11.39;100.00
54389;BME280;40975;50.390;8.640;2022-09-25T09:18:20;98770.69;;;11.34;100.00
54389;BME280;40975;50.390;8.640;2022-09-25T09:20:58;98774.53;;;11.40;100.00
54389;BME280;40975;50.390;8.640;2022-09-25T09:23:35;98772.34;;;11.35;100.00
54389;BME280;40975;50.390;8.640;2022-09-25T09:26:14;98772.53;;;11.42;100.00
54389;BME280;40975;50.390;8.640;2022-09-25T09:31:29;98777.34;;;11.38;100.00
54389;BME280;40975;50.390;8.640;2022-09-25T09:36:51;98777.38;;;11.46;100.00
54389;BME280;40975;50.390;8.640;2022-09-25T09:39:38;98775.41;;;11.48;100.00
54389;BME280;40975;50.390;8.640;2022-09-25T09:42:15;98773.56;;;11.49;100.00
54389;BME280;40975;50.390;8.640;2022-09-25T09:48:05;98774.72;;;11.46;100.00
54389;BME280;40975;50.390;8.640;2022-09-25T09:50:38;98778.22;;;11.47;100.00
54389;BME280;40975;50.390;8.640;2022-09-25T09:53:07;98776.06;;;11.50;100.00
54389;BME280;40975;50.390;8.640;2022-09-25T09:55:48;98775.03;;;11.43;100.00
54389;BME280;40975;50.390;8.640;2022-09-25T09:58:22;98772.22;;;11.45;100.00
54389;BME280;40975;50.390;8.640;2022-09-25T10:00:49;98772.06;;;11.46;100.00
54389;BME280;40975;50.390;8.640;2022-09-25T10:03:22;98775.00;;;11.35;100.00
54389;BME280;40975;50.390;8.640;2022-09-25T10:05:51;98768.03;;;11.34;100.00
54389;BME280;40975;50.390;8.640;2022-09-25T10:08:18;98773.88;;;11.38;100.00
54389;BME280;40975;50.390;8.640;2022-09-25T10:10:46;98769.88;;;11.42;100.00
54389;BME280;40975;50.390;8.640;2022-09-25T10:13:32;98767.03;;;11.35;100.00
54389;BME280;40975;50.390;8.640;2022-09-25T10:16:14;98764.75;;;11.40;100.00
54389;BME280;40975;50.390;8.640;2022-09-25T10:18:47;98760.94;;;11.43;100.00
54389;BME280;40975;50.390;8.640;2022-09-25T10:21:22;98760.72;;;11.36;100.00
54389;BME280;40975;50.390;8.640;2022-09-25T10:23:49;98760.53;;;11.29;100.00
54389;BME280;40975;50.390;8.640;2022-09-25T10:26:25;98771.03;;;11.31;100.00
54389;BME280;40975;50.390;8.640;2022-09-25T10:28:51;98771.06;;;11.39;100.00
54389;BME280;40975;50.390;8.640;2022-09-25T10:31:18;98766.91;;;11.37;100.00
54389;BME280;40975;50.390;8.640;2022-09-25T10:36:38;98768.88;;;11.34;100.00
54389;BME280;40975;50.390;8.640;2022-09-25T10:39:22;98766.91;;;11.37;100.00
54389;BME280;40975;50.390;8.640;2022-09-25T10:41:48;98770.84;;;11.32;100.00
54389;BME280;40975;50.390;8.640;2022-09-25T10:44:34;98762.38;;;11.29;100.00
54389;BME280;40975;50.390;8.640;2022-09-25T10:55:19;98759.75;;;11.45;100.00
54389;BME280;40975;50.390;8.640;2022-09-25T10:57:46;98765.59;;;11.49;100.00
54389;BME280;40975;50.390;8.640;2022-09-25T11:00:24;98762.78;;;11.50;100.00
54389;BME280;40975;50.390;8.640;2022-09-25T11:02:53;98759.75;;;11.45;100.00
54389;BME280;40975;50.390;8.640;2022-09-25T11:05:25;98755.63;;;11.51;100.00
54389;BME280;40975;50.390;8.640;2022-09-25T11:07:55;98765.28;;;11.60;100.00
54389;BME280;40975;50.390;8.640;2022-09-25T11:10:24;98765.28;;;11.60;100.00
54389;BME280;40975;50.390;8.640;2022-09-25T11:12:51;98756.16;;;11.63;100.00
54389;BME280;40975;50.390;8.640;2022-09-25T11:15:22;98761.81;;;11.60;100.00
54389;BME280;40975;50.390;8.640;2022-09-25T11:17:52;98764.13;;;11.63;100.00
54389;BME280;40975;50.390;8.640;2022-09-25T11:20:28;98755.84;;;11.66;100.00
54389;BME280;40975;50.390;8.640;2022-09-25T11:23:10;98767.16;;;11.68;100.00
54389;BME280;40975;50.390;8.640;2022-09-25T11:26:07;98765.97;;;11.62;100.00
54389;BME280;40975;50.390;8.640;2022-09-25T11:28:54;98764.81;;;11.73;100.00
54389;BME280;40975;50.390;8.640;2022-09-25T11:31:35;98765.50;;;11.75;100.00
54389;BME280;40975;50.390;8.640;2022-09-25T11:34:13;98768.16;;;11.75;100.00
54389;BME280;40975;50.390;8.640;2022-09-25T11:36:53;98768.50;;;11.80;100.00
54389;BME280;40975;50.390;8.640;2022-09-25T11:39:41;98769.00;;;11.76;100.00
54389;BME280;40975;50.390;8.640;2022-09-25T11:42:46;98768.50;;;11.80;100.00
54389;BME280;40975;50.390;8.640;2022-09-25T11:45:33;98764.50;;;11.85;100.00
54389;BME280;40975;50.390;8.640;2022-09-25T11:50:45;98762.22;;;11.90;100.00
54389;BME280;40975;50.390;8.640;2022-09-25T11:53:40;98760.22;;;11.92;100.00
54389;BME280;40975;50.390;8.640;2022-09-25T11:56:49;98760.06;;;11.93;100.00
54389;BME280;40975;50.390;8.640;2022-09-25T12:10:55;98761.38;;;11.89;100.00
54389;BME280;40975;50.390;8.640;2022-09-25T12:16:20;98757.06;;;11.96;100.00
54389;BME280;40975;50.390;8.640;2022-09-25T12:19:06;98754.56;;;11.87;100.00
54389;BME280;40975;50.390;8.640;2022-09-25T12:24:33;98764.25;;;12.04;100.00
54389;BME280;40975;50.390;8.640;2022-09-25T12:32:26;98758.56;;;11.91;100.00
54389;BME280;40975;50.390;8.640;2022-09-25T12:35:08;98761.94;;;12.01;100.00
54389;BME280;40975;50.390;8.640;2022-09-25T12:37:44;98756.75;;;12.00;100.00
54389;BME280;40975;50.390;8.640;2022-09-25T12:40:26;98763.25;;;12.05;100.00
54389;BME280;40975;50.390;8.640;2022-09-25T12:43:06;98768.41;;;12.07;100.00
54389;BME280;40975;50.390;8.640;2022-09-25T12:45:48;98764.59;;;12.09;100.00
54389;BME280;40975;50.390;8.640;2022-09-25T12:48:40;98765.91;;;12.05;100.00
54389;BME280;40975;50.390;8.640;2022-09-25T12:51:20;98761.25;;;12.07;100.00
54389;BME280;40975;50.390;8.640;2022-09-25T12:53:58;98763.09;;;12.07;100.00
54389;BME280;40975;50.390;8.640;2022-09-25T12:56:30;98762.94;;;12.08;100.00
54389;BME280;40975;50.390;8.640;2022-09-25T12:59:19;98755.25;;;12.05;100.00
54389;BME280;40975;50.390;8.640;2022-09-25T13:02:12;98758.91;;;12.04;100.00
54389;BME280;40975;50.390;8.640;2022-09-25T13:05:14;98760.09;;;12.02;100.00
54389;BME280;40975;50.390;8.640;2022-09-25T13:08:02;98755.75;;;12.09;100.00
54389;BME280;40975;50.390;8.640;2022-09-25T13:10:37;98749.78;;;11.98;100.00
54389;BME280;40975;50.390;8.640;2022-09-25T13:13:08;98752.06;;;11.93;100.00
54389;BME280;40975;50.390;8.640;2022-09-25T13:15:35;98756.03;;;11.89;100.00
54389;BME280;40975;50.390;8.640;2022-09-25T13:18:03;98757.06;;;11.96;100.00
54389;BME280;40975;50.390;8.640;2022-09-25T13:25:24;98761.22;;;11.91;100.00
54389;BME280;40975;50.390;8.640;2022-09-25T13:27:51;98752.22;;;11.83;100.00
54389;BME280;40975;50.390;8.640;2022-09-25T13:30:27;98753.56;;;11.79;100.00
54389;BME280;40975;50.390;8.640;2022-09-25T13:32:58;98749.72;;;11.74;100.00
54389;BME280;40975;50.390;8.640;2022-09-25T13:35:28;98750.22;;;11.77;100.00
54389;BME280;40975;50.390;8.640;2022-09-25T13:38:07;98749.84;;;11.64;100.00
54389;BME280;40975;50.390;8.640;2022-09-25T13:40:37;98752.19;;;11.67;100.00
54389;BME280;40975;50.390;8.640;2022-09-25T13:43:21;98748.53;;;11.68;100.00
54389;BME280;40975;50.390;8.640;2022-09-25T13:48:46;98747.72;;;11.68;100.00
54389;BME280;40975;50.390;8.640;2022-09-25T13:56:26;98741.53;;;11.50;100.00
54389;BME280;40975;50.390;8.640;2022-09-25T14:01:42;98744.47;;;11.39;100.00
54389;BME280;40975;50.390;8.640;2022-09-25T14:06:34;98751.16;;;11.51;100.00
54389;BME280;40975;50.390;8.640;2022-09-25T14:09:05;98736.03;;;11.44;100.00
54389;BME280;40975;50.390;8.640;2022-09-25T14:11:34;98736.19;;;11.42;100.00
54389;BME280;40975;50.390;8.640;2022-09-25T14:14:06;98730.72;;;11.52;100.00
54389;BME280;40975;50.390;8.640;2022-09-25T14:16:44;98725.41;;;11.44;100.00
54389;BME280;40975;50.390;8.640;2022-09-25T14:19:16;98722.25;;;11.48;100.00
54389;BME280;40975;50.390;8.640;2022-09-25T14:21:43;98722.25;;;11.48;100.00
54389;BME280;40975;50.390;8.640;2022-09-25T14:24:17;98720.06;;;11.44;100.00
54389;BME280;40975;50.390;8.640;2022-09-25T14:26:44;98711.63;;;11.48;100.00
54389;BME280;40975;50.390;8.640;2022-09-25T14:29:18;98714.59;;;11.54;100.00
54389;BME280;40975;50.390;8.640;2022-09-25T14:32:04;98709.47;;;11.60;100.00